KPHL Airport Information

Runway Information
Runway 08 Length 5000 ft width 150 ft
Elevation 9 ft Threshold 0 ft Heading 76
Runway 26 Length 5000 ft Width 150 ft
Elevation 36 ft Threshold 0 ft Heading 256
Runway 09L Length 9500 ft width 150 ft
Elevation 13 ft Threshold 0 ft Heading 76
Runway 27R Length 9500 ft Width 150 ft
Elevation 11 ft Threshold 0 ft Heading 256
Runway 09R Length 10506 ft width 200 ft
Elevation 20 ft Threshold 0 ft Heading 76
Runway 27L Length 10506 ft Width 200 ft
Elevation 9 ft Threshold 0 ft Heading 256
Runway 17 Length 5460 ft width 150 ft
Elevation 9 ft Threshold 0 ft Heading 159
Runway 35 Length 5460 ft Width 150 ft
Elevation 9 ft Threshold 0 ft Heading 339
Airport Frequencies
Type APP Name APP Frequency 123.8 MHZ
Type ARR Name PRM Frequency 120.425 MHZ
Type ATIS Name ATIS Frequency 133.4 MHZ
Type CLD Name CLNC DEL Frequency 118.85 MHZ
Type DEP Name DEP Frequency 119.75 MHZ
Type GND Name GND Frequency 121.9 MHZ
Type TWR Name TWR Frequency 118.5 MHZ
Type UNIC Name UNICOM Frequency 122.95 MHZ
Airport Navaids
Type NDB Name Speez Frequency 222 KHZ
Airport Weather Information & NOTAM
ADDS - METARS form results

(1446 UTC 20 April 2018)
Data provider http://aviationweather.gov/adds/metars/
 
METAR text: KPHL 201354Z 33013G21KT 10SM FEW048 06/M06 A3024 RMK AO2 SLP238 T00611061
Conditions at: KPHL (PHILADELPHIA , PA, US) observed 1354 UTC 20 April 2018
Temperature: 6.1°C (43°F)
Dewpoint: -6.1°C (21°F) [RH = 41%]
Pressure (altimeter): 30.24 inches Hg (1024.1 mb)
[Sea-level pressure: 1023.8 mb]
Winds: from the NNW (330 degrees) at 15 MPH (13 knots; 6.8 m/s)
gusting to 24 MPH (21 knots; 10.9 m/s)
Visibility: 10 or more miles (16+ km)
Ceiling: at least 12,000 feet AGL
Clouds: few clouds at 4800 feet AGL
Weather: no significant weather observed at this time

Forecast for: KPHL (PHILADELPHIA , PA, US)
Text: KPHL 201354Z 2014/2118 33016G25KT P6SM FEW050
Forecast period: 1400 to 1900 UTC 20 April 2018
Forecast type: FROM: standard forecast or significant change
Winds: from the NNW (330 degrees) at 18 MPH (16 knots; 8.3 m/s)
gusting to 29 MPH (25 knots; 13.0 m/s)
Visibility: 6 or more miles (10+ km)
Clouds: few clouds at 5000 feet AGL
Weather: no significant weather forecast for this period
Forecast for: KPHL (PHILADELPHIA , PA, US)
Text: KPHL 201354Z 2014/2118 33016G25KT P6SM FEW050
Forecast period: 1400 to 1900 UTC 20 April 2018
Forecast type: FROM: standard forecast or significant change
Winds: from the NNW (330 degrees) at 18 MPH (16 knots; 8.3 m/s)
gusting to 29 MPH (25 knots; 13.0 m/s)
Visibility: 6 or more miles (10+ km)
Clouds: few clouds at 5000 feet AGL
Weather: no significant weather forecast for this period
Forecast for: KPHL (PHILADELPHIA , PA, US)
Text: KPHL 201354Z 2014/2118 33016G25KT P6SM FEW050
Forecast period: 1900 to 2200 UTC 20 April 2018
Forecast type: FROM: standard forecast or significant change
Winds: from the NW (320 degrees) at 14 MPH (12 knots; 6.2 m/s)
gusting to 22 MPH (19 knots; 9.9 m/s)
Visibility: 6 or more miles (10+ km)
Clouds: few clouds at 6000 feet AGL
Weather: no significant weather forecast for this period
Forecast for: KPHL (PHILADELPHIA , PA, US)
Text: KPHL 201354Z 2014/2118 33016G25KT P6SM FEW050
Forecast period: 1900 to 2200 UTC 20 April 2018
Forecast type: FROM: standard forecast or significant change
Winds: from the NW (320 degrees) at 14 MPH (12 knots; 6.2 m/s)
gusting to 22 MPH (19 knots; 9.9 m/s)
Visibility: 6 or more miles (10+ km)
Clouds: few clouds at 6000 feet AGL
Weather: no significant weather forecast for this period
Forecast for: KPHL (PHILADELPHIA , PA, US)
Text: KPHL 201354Z 2014/2118 33016G25KT P6SM FEW050
Forecast period: 2200 UTC 20 April 2018 to 0300 UTC 21 April 2018
Forecast type: FROM: standard forecast or significant change
Winds: from the NNW (330 degrees) at 14 MPH (12 knots; 6.2 m/s)
Visibility: 6 or more miles (10+ km)
Clouds: scattered clouds at 6000 feet AGL
Weather: no significant weather forecast for this period
Forecast for: KPHL (PHILADELPHIA , PA, US)
Text: KPHL 201354Z 2014/2118 33016G25KT P6SM FEW050
Forecast period: 2200 UTC 20 April 2018 to 0300 UTC 21 April 2018
Forecast type: FROM: standard forecast or significant change
Winds: from the NNW (330 degrees) at 14 MPH (12 knots; 6.2 m/s)
Visibility: 6 or more miles (10+ km)
Clouds: scattered clouds at 6000 feet AGL
Weather: no significant weather forecast for this period
Forecast for: KPHL (PHILADELPHIA , PA, US)
Text: KPHL 201354Z 2014/2118 33016G25KT P6SM FEW050
Forecast period: 0300 to 1800 UTC 21 April 2018
Forecast type: FROM: standard forecast or significant change
Winds: from the NW (320 degrees) at 9 MPH (8 knots; 4.2 m/s)
Visibility: 6 or more miles (10+ km)
Clouds: scattered clouds at 25000 feet AGL
Weather: no significant weather forecast for this period
Forecast for: KPHL (PHILADELPHIA , PA, US)
Text: KPHL 201354Z 2014/2118 33016G25KT P6SM FEW050
Forecast period: 0300 to 1800 UTC 21 April 2018
Forecast type: FROM: standard forecast or significant change
Winds: from the NW (320 degrees) at 9 MPH (8 knots; 4.2 m/s)
Visibility: 6 or more miles (10+ km)
Clouds: scattered clouds at 25000 feet AGL
Weather: no significant weather forecast for this period